sensor_id;sensor_type;location;lat;lon;timestamp;temperature;humidity
71206;SHT31;58935;54.498;18.544;2024-01-11T00:00:30;1.89;87.36
71206;SHT31;58935;54.498;18.544;2024-01-11T00:02:56;1.89;87.26
71206;SHT31;58935;54.498;18.544;2024-01-11T00:05:21;1.90;87.21
71206;SHT31;58935;54.498;18.544;2024-01-11T00:07:47;1.90;87.19
71206;SHT31;58935;54.498;18.544;2024-01-11T00:10:13;1.91;87.07
71206;SHT31;58935;54.498;18.544;2024-01-11T00:12:41;1.89;86.96
71206;SHT31;58935;54.498;18.544;2024-01-11T00:15:07;1.88;86.96
71206;SHT31;58935;54.498;18.544;2024-01-11T00:17:35;1.86;86.94
71206;SHT31;58935;54.498;18.544;2024-01-11T00:20:01;1.85;86.89
71206;SHT31;58935;54.498;18.544;2024-01-11T00:22:27;1.85;86.85
71206;SHT31;58935;54.498;18.544;2024-01-11T00:24:53;1.85;86.84
71206;SHT31;58935;54.498;18.544;2024-01-11T00:27:18;1.86;86.90
71206;SHT31;58935;54.498;18.544;2024-01-11T00:29:44;1.89;86.83
71206;SHT31;58935;54.498;18.544;2024-01-11T00:32:10;1.91;86.75
71206;SHT31;58935;54.498;18.544;2024-01-11T00:34:35;1.91;86.61
71206;SHT31;58935;54.498;18.544;2024-01-11T00:37:01;1.94;86.52
71206;SHT31;58935;54.498;18.544;2024-01-11T00:39:27;1.96;86.41
71206;SHT31;58935;54.498;18.544;2024-01-11T00:41:54;1.99;86.31
71206;SHT31;58935;54.498;18.544;2024-01-11T00:44:20;2.00;86.22
71206;SHT31;58935;54.498;18.544;2024-01-11T00:46:45;2.01;86.20
71206;SHT31;58935;54.498;18.544;2024-01-11T00:49:11;2.02;86.20
71206;SHT31;58935;54.498;18.544;2024-01-11T00:51:39;2.04;86.17
71206;SHT31;58935;54.498;18.544;2024-01-11T00:54:06;2.07;86.20
71206;SHT31;58935;54.498;18.544;2024-01-11T00:56:32;2.09;86.08
71206;SHT31;58935;54.498;18.544;2024-01-11T00:59:00;2.12;86.00
71206;SHT31;58935;54.498;18.544;2024-01-11T01:01:25;2.11;85.89
71206;SHT31;58935;54.498;18.544;2024-01-11T01:03:51;2.12;85.77
71206;SHT31;58935;54.498;18.544;2024-01-11T01:06:19;2.13;85.69
71206;SHT31;58935;54.498;18.544;2024-01-11T01:08:49;2.13;85.68
71206;SHT31;58935;54.498;18.544;2024-01-11T01:11:14;2.13;85.69
71206;SHT31;58935;54.498;18.544;2024-01-11T01:13:40;2.14;85.69
71206;SHT31;58935;54.498;18.544;2024-01-11T01:16:05;2.15;85.60
71206;SHT31;58935;54.498;18.544;2024-01-11T01:18:31;2.15;85.54
71206;SHT31;58935;54.498;18.544;2024-01-11T01:20:56;2.16;85.52
71206;SHT31;58935;54.498;18.544;2024-01-11T01:23:22;2.17;85.43
71206;SHT31;58935;54.498;18.544;2024-01-11T01:25:48;2.20;85.37
71206;SHT31;58935;54.498;18.544;2024-01-11T01:28:14;2.20;85.20
71206;SHT31;58935;54.498;18.544;2024-01-11T01:30:39;2.20;85.10
71206;SHT31;58935;54.498;18.544;2024-01-11T01:33:05;2.19;85.01
71206;SHT31;58935;54.498;18.544;2024-01-11T01:35:31;2.21;84.98
71206;SHT31;58935;54.498;18.544;2024-01-11T01:37:59;2.21;84.91
71206;SHT31;58935;54.498;18.544;2024-01-11T01:40:29;2.21;84.95
71206;SHT31;58935;54.498;18.544;2024-01-11T01:42:58;2.21;84.94
71206;SHT31;58935;54.498;18.544;2024-01-11T01:45:25;2.22;84.88
71206;SHT31;58935;54.498;18.544;2024-01-11T01:47:52;2.22;84.82
71206;SHT31;58935;54.498;18.544;2024-01-11T01:50:21;2.21;84.73
71206;SHT31;58935;54.498;18.544;2024-01-11T01:52:47;2.21;84.70
71206;SHT31;58935;54.498;18.544;2024-01-11T01:55:18;2.21;84.62
71206;SHT31;58935;54.498;18.544;2024-01-11T01:57:45;2.20;84.77
71206;SHT31;58935;54.498;18.544;2024-01-11T02:00:13;2.19;84.73
71206;SHT31;58935;54.498;18.544;2024-01-11T02:02:43;2.19;84.53
71206;SHT31;58935;54.498;18.544;2024-01-11T02:05:10;2.18;84.48
71206;SHT31;58935;54.498;18.544;2024-01-11T02:07:38;2.19;84.38
71206;SHT31;58935;54.498;18.544;2024-01-11T02:10:06;2.18;84.29
71206;SHT31;58935;54.498;18.544;2024-01-11T02:12:33;2.18;84.20
71206;SHT31;58935;54.498;18.544;2024-01-11T02:15:02;2.19;84.22
71206;SHT31;58935;54.498;18.544;2024-01-11T02:17:31;2.20;84.27
71206;SHT31;58935;54.498;18.544;2024-01-11T02:19:57;2.20;84.27
71206;SHT31;58935;54.498;18.544;2024-01-11T02:22:27;2.19;84.11
71206;SHT31;58935;54.498;18.544;2024-01-11T02:24:57;2.18;84.10
71206;SHT31;58935;54.498;18.544;2024-01-11T02:27:23;2.19;84.12
71206;SHT31;58935;54.498;18.544;2024-01-11T02:29:49;2.19;84.10
71206;SHT31;58935;54.498;18.544;2024-01-11T02:32:14;2.19;84.04
71206;SHT31;58935;54.498;18.544;2024-01-11T02:34:40;2.19;84.00
71206;SHT31;58935;54.498;18.544;2024-01-11T02:37:06;2.20;83.98
71206;SHT31;58935;54.498;18.544;2024-01-11T02:39:32;2.21;83.86
71206;SHT31;58935;54.498;18.544;2024-01-11T02:41:59;2.21;83.77
71206;SHT31;58935;54.498;18.544;2024-01-11T02:44:25;2.22;83.76
71206;SHT31;58935;54.498;18.544;2024-01-11T02:46:53;2.23;83.62
71206;SHT31;58935;54.498;18.544;2024-01-11T02:49:19;2.24;83.60
71206;SHT31;58935;54.498;18.544;2024-01-11T02:51:44;2.23;83.57
71206;SHT31;58935;54.498;18.544;2024-01-11T02:54:10;2.21;83.51
71206;SHT31;58935;54.498;18.544;2024-01-11T02:56:38;2.22;83.57
71206;SHT31;58935;54.498;18.544;2024-01-11T02:59:03;2.19;83.52
71206;SHT31;58935;54.498;18.544;2024-01-11T03:01:29;2.18;83.57
71206;SHT31;58935;54.498;18.544;2024-01-11T03:03:54;2.16;83.56
71206;SHT31;58935;54.498;18.544;2024-01-11T03:06:21;2.15;83.60
71206;SHT31;58935;54.498;18.544;2024-01-11T03:08:48;2.15;83.62
71206;SHT31;58935;54.498;18.544;2024-01-11T03:11:14;2.14;83.69
71206;SHT31;58935;54.498;18.544;2024-01-11T03:13:41;2.14;83.70
71206;SHT31;58935;54.498;18.544;2024-01-11T03:16:07;2.13;83.79
71206;SHT31;58935;54.498;18.544;2024-01-11T03:18:32;2.12;83.83
71206;SHT31;58935;54.498;18.544;2024-01-11T03:21:00;2.11;83.91
71206;SHT31;58935;54.498;18.544;2024-01-11T03:23:25;2.10;84.00
71206;SHT31;58935;54.498;18.544;2024-01-11T03:25:51;2.09;84.08
71206;SHT31;58935;54.498;18.544;2024-01-11T03:28:19;2.08;84.17
71206;SHT31;58935;54.498;18.544;2024-01-11T03:30:44;2.07;84.20
71206;SHT31;58935;54.498;18.544;2024-01-11T03:33:09;2.07;84.25
71206;SHT31;58935;54.498;18.544;2024-01-11T03:35:35;2.06;84.40
71206;SHT31;58935;54.498;18.544;2024-01-11T03:38:03;2.06;84.41
71206;SHT31;58935;54.498;18.544;2024-01-11T03:40:30;2.06;84.46
71206;SHT31;58935;54.498;18.544;2024-01-11T03:42:56;2.07;84.50
71206;SHT31;58935;54.498;18.544;2024-01-11T03:45:21;2.07;84.48
71206;SHT31;58935;54.498;18.544;2024-01-11T03:47:47;2.08;84.50
71206;SHT31;58935;54.498;18.544;2024-01-11T03:50:12;2.08;84.49
71206;SHT31;58935;54.498;18.544;2024-01-11T03:52:38;2.09;84.46
71206;SHT31;58935;54.498;18.544;2024-01-11T03:55:07;2.07;84.44
71206;SHT31;58935;54.498;18.544;2024-01-11T03:57:33;2.07;84.50
71206;SHT31;58935;54.498;18.544;2024-01-11T03:59:58;2.09;84.50
71206;SHT31;58935;54.498;18.544;2024-01-11T04:02:26;2.09;84.44
71206;SHT31;58935;54.498;18.544;2024-01-11T04:04:52;2.10;84.41
71206;SHT31;58935;54.498;18.544;2024-01-11T04:07:19;2.10;84.41
71206;SHT31;58935;54.498;18.544;2024-01-11T04:09:44;2.10;84.48
71206;SHT31;58935;54.498;18.544;2024-01-11T04:12:12;2.12;84.41
71206;SHT31;58935;54.498;18.544;2024-01-11T04:14:38;2.11;84.40
71206;SHT31;58935;54.498;18.544;2024-01-11T04:17:05;2.09;84.37
71206;SHT31;58935;54.498;18.544;2024-01-11T04:19:34;2.08;84.46
71206;SHT31;58935;54.498;18.544;2024-01-11T04:21:59;2.08;84.57
71206;SHT31;58935;54.498;18.544;2024-01-11T04:24:25;2.09;84.50
71206;SHT31;58935;54.498;18.544;2024-01-11T04:26:50;2.09;84.50
71206;SHT31;58935;54.498;18.544;2024-01-11T04:29:15;2.10;84.44
71206;SHT31;58935;54.498;18.544;2024-01-11T04:31:41;2.12;84.44
71206;SHT31;58935;54.498;18.544;2024-01-11T04:34:06;2.13;84.43
71206;SHT31;58935;54.498;18.544;2024-01-11T04:36:32;2.13;84.43
71206;SHT31;58935;54.498;18.544;2024-01-11T04:38:58;2.13;84.40
71206;SHT31;58935;54.498;18.544;2024-01-11T04:41:23;2.13;84.37
71206;SHT31;58935;54.498;18.544;2024-01-11T04:43:48;2.13;84.40
71206;SHT31;58935;54.498;18.544;2024-01-11T04:46:16;2.13;84.40
71206;SHT31;58935;54.498;18.544;2024-01-11T04:48:43;2.13;84.42
71206;SHT31;58935;54.498;18.544;2024-01-11T04:51:09;2.15;84.48
71206;SHT31;58935;54.498;18.544;2024-01-11T04:53:37;2.15;84.45
71206;SHT31;58935;54.498;18.544;2024-01-11T04:56:06;2.16;84.51
71206;SHT31;58935;54.498;18.544;2024-01-11T04:58:33;2.16;84.60
71206;SHT31;58935;54.498;18.544;2024-01-11T05:01:00;2.18;84.66
71206;SHT31;58935;54.498;18.544;2024-01-11T05:03:26;2.18;84.60
71206;SHT31;58935;54.498;18.544;2024-01-11T05:05:52;2.19;84.67
71206;SHT31;58935;54.498;18.544;2024-01-11T05:08:18;2.21;84.68
71206;SHT31;58935;54.498;18.544;2024-01-11T05:10:43;2.21;84.69
71206;SHT31;58935;54.498;18.544;2024-01-11T05:13:09;2.20;84.70
71206;SHT31;58935;54.498;18.544;2024-01-11T05:15:35;2.21;84.71
71206;SHT31;58935;54.498;18.544;2024-01-11T05:18:05;2.20;84.75
71206;SHT31;58935;54.498;18.544;2024-01-11T05:20:31;2.19;84.81
71206;SHT31;58935;54.498;18.544;2024-01-11T05:22:56;2.20;84.90
71206;SHT31;58935;54.498;18.544;2024-01-11T05:25:22;2.21;84.85
71206;SHT31;58935;54.498;18.544;2024-01-11T05:27:47;2.21;84.80
71206;SHT31;58935;54.498;18.544;2024-01-11T05:30:13;2.22;84.80
71206;SHT31;58935;54.498;18.544;2024-01-11T05:32:39;2.22;84.81
71206;SHT31;58935;54.498;18.544;2024-01-11T05:35:05;2.24;84.82
71206;SHT31;58935;54.498;18.544;2024-01-11T05:37:33;2.26;84.74
71206;SHT31;58935;54.498;18.544;2024-01-11T05:39:58;2.27;84.74
71206;SHT31;58935;54.498;18.544;2024-01-11T05:42:23;2.28;84.67
71206;SHT31;58935;54.498;18.544;2024-01-11T05:44:51;2.29;84.70
71206;SHT31;58935;54.498;18.544;2024-01-11T05:47:19;2.33;84.71
71206;SHT31;58935;54.498;18.544;2024-01-11T05:49:47;2.36;84.63
71206;SHT31;58935;54.498;18.544;2024-01-11T05:52:15;2.39;84.47
71206;SHT31;58935;54.498;18.544;2024-01-11T05:54:40;2.41;84.41
71206;SHT31;58935;54.498;18.544;2024-01-11T05:57:06;2.44;84.35
71206;SHT31;58935;54.498;18.544;2024-01-11T05:59:32;2.46;84.15
71206;SHT31;58935;54.498;18.544;2024-01-11T06:02:00;2.45;84.07
71206;SHT31;58935;54.498;18.544;2024-01-11T06:04:26;2.46;84.01
71206;SHT31;58935;54.498;18.544;2024-01-11T06:06:52;2.48;83.92
71206;SHT31;58935;54.498;18.544;2024-01-11T06:09:18;2.49;83.90
71206;SHT31;58935;54.498;18.544;2024-01-11T06:11:43;2.48;83.78
71206;SHT31;58935;54.498;18.544;2024-01-11T06:14:11;2.48;83.73
71206;SHT31;58935;54.498;18.544;2024-01-11T06:16:36;2.47;83.67
71206;SHT31;58935;54.498;18.544;2024-01-11T06:19:02;2.46;83.61
71206;SHT31;58935;54.498;18.544;2024-01-11T06:21:32;2.45;83.61
71206;SHT31;58935;54.498;18.544;2024-01-11T06:23:57;2.43;83.62
71206;SHT31;58935;54.498;18.544;2024-01-11T06:26:23;2.42;83.63
71206;SHT31;58935;54.498;18.544;2024-01-11T06:28:48;2.41;83.67
71206;SHT31;58935;54.498;18.544;2024-01-11T06:31:13;2.42;83.62
71206;SHT31;58935;54.498;18.544;2024-01-11T06:33:42;2.40;83.66
71206;SHT31;58935;54.498;18.544;2024-01-11T06:36:08;2.41;83.71
71206;SHT31;58935;54.498;18.544;2024-01-11T06:38:34;2.43;83.72
71206;SHT31;58935;54.498;18.544;2024-01-11T06:40:59;2.43;83.69
71206;SHT31;58935;54.498;18.544;2024-01-11T06:43:25;2.44;83.67
71206;SHT31;58935;54.498;18.544;2024-01-11T06:45:51;2.46;83.69
71206;SHT31;58935;54.498;18.544;2024-01-11T06:48:18;2.46;83.61
71206;SHT31;58935;54.498;18.544;2024-01-11T06:50:43;2.47;83.61
71206;SHT31;58935;54.498;18.544;2024-01-11T06:53:11;2.47;83.61
71206;SHT31;58935;54.498;18.544;2024-01-11T06:55:37;2.48;83.61
71206;SHT31;58935;54.498;18.544;2024-01-11T06:58:02;2.48;83.60
71206;SHT31;58935;54.498;18.544;2024-01-11T07:00:30;2.49;83.57
71206;SHT31;58935;54.498;18.544;2024-01-11T07:02:56;2.50;83.51
71206;SHT31;58935;54.498;18.544;2024-01-11T07:05:21;2.51;83.52
71206;SHT31;58935;54.498;18.544;2024-01-11T07:07:52;2.50;83.55
71206;SHT31;58935;54.498;18.544;2024-01-11T07:10:19;2.51;83.52
71206;SHT31;58935;54.498;18.544;2024-01-11T07:12:47;2.50;83.52
71206;SHT31;58935;54.498;18.544;2024-01-11T07:15:12;2.51;83.60
71206;SHT31;58935;54.498;18.544;2024-01-11T07:17:40;2.52;83.61
71206;SHT31;58935;54.498;18.544;2024-01-11T07:20:05;2.53;83.60
71206;SHT31;58935;54.498;18.544;2024-01-11T07:22:32;2.53;83.57
71206;SHT31;58935;54.498;18.544;2024-01-11T07:24:58;2.53;83.57
71206;SHT31;58935;54.498;18.544;2024-01-11T07:27:25;2.55;83.59
71206;SHT31;58935;54.498;18.544;2024-01-11T07:29:51;2.54;83.57
71206;SHT31;58935;54.498;18.544;2024-01-11T07:32:16;2.54;83.59
71206;SHT31;58935;54.498;18.544;2024-01-11T07:34:42;2.54;83.59
71206;SHT31;58935;54.498;18.544;2024-01-11T07:37:07;2.55;83.59
71206;SHT31;58935;54.498;18.544;2024-01-11T07:39:35;2.56;83.64
71206;SHT31;58935;54.498;18.544;2024-01-11T07:42:01;2.60;83.73
71206;SHT31;58935;54.498;18.544;2024-01-11T07:44:28;2.62;83.56
71206;SHT31;58935;54.498;18.544;2024-01-11T07:46:53;2.66;83.49
71206;SHT31;58935;54.498;18.544;2024-01-11T07:49:19;2.67;83.40
71206;SHT31;58935;54.498;18.544;2024-01-11T07:51:45;2.70;83.39
71206;SHT31;58935;54.498;18.544;2024-01-11T07:54:10;2.74;83.41
71206;SHT31;58935;54.498;18.544;2024-01-11T07:56:36;2.77;83.41
71206;SHT31;58935;54.498;18.544;2024-01-11T07:59:01;2.79;83.23
71206;SHT31;58935;54.498;18.544;2024-01-11T08:01:29;2.81;83.21
71206;SHT31;58935;54.498;18.544;2024-01-11T08:03:55;2.84;83.05
71206;SHT31;58935;54.498;18.544;2024-01-11T08:06:20;2.87;83.03
71206;SHT31;58935;54.498;18.544;2024-01-11T08:08:46;2.90;83.00
71206;SHT31;58935;54.498;18.544;2024-01-11T08:11:16;2.95;82.93
71206;SHT31;58935;54.498;18.544;2024-01-11T08:13:43;3.00;82.85
71206;SHT31;58935;54.498;18.544;2024-01-11T08:16:09;3.03;82.62
71206;SHT31;58935;54.498;18.544;2024-01-11T08:18:39;3.06;82.61
71206;SHT31;58935;54.498;18.544;2024-01-11T08:21:07;3.10;82.56
71206;SHT31;58935;54.498;18.544;2024-01-11T08:23:34;3.17;82.45
71206;SHT31;58935;54.498;18.544;2024-01-11T08:26:02;3.21;82.15
71206;SHT31;58935;54.498;18.544;2024-01-11T08:28:30;3.29;81.96
71206;SHT31;58935;54.498;18.544;2024-01-11T08:30:56;3.35;81.90
71206;SHT31;58935;54.498;18.544;2024-01-11T08:33:22;3.41;81.74
71206;SHT31;58935;54.498;18.544;2024-01-11T08:35:47;3.45;81.57
71206;SHT31;58935;54.498;18.544;2024-01-11T08:38:13;3.49;81.38
71206;SHT31;58935;54.498;18.544;2024-01-11T08:40:38;3.50;81.16
71206;SHT31;58935;54.498;18.544;2024-01-11T08:43:03;3.49;80.98
71206;SHT31;58935;54.498;18.544;2024-01-11T08:45:31;3.52;81.05
71206;SHT31;58935;54.498;18.544;2024-01-11T08:47:56;3.56;81.17
71206;SHT31;58935;54.498;18.544;2024-01-11T08:50:22;3.62;81.07
71206;SHT31;58935;54.498;18.544;2024-01-11T08:52:50;3.65;80.90
71206;SHT31;58935;54.498;18.544;2024-01-11T08:55:15;3.67;80.82
71206;SHT31;58935;54.498;18.544;2024-01-11T08:57:43;3.70;80.81
71206;SHT31;58935;54.498;18.544;2024-01-11T09:00:11;3.73;80.72
71206;SHT31;58935;54.498;18.544;2024-01-11T09:02:42;3.75;80.73
71206;SHT31;58935;54.498;18.544;2024-01-11T09:05:08;3.77;80.59
71206;SHT31;58935;54.498;18.544;2024-01-11T09:07:34;3.78;80.52
71206;SHT31;58935;54.498;18.544;2024-01-11T09:09:59;3.80;80.51
71206;SHT31;58935;54.498;18.544;2024-01-11T09:12:25;3.79;80.37
71206;SHT31;58935;54.498;18.544;2024-01-11T09:14:50;3.80;80.45
71206;SHT31;58935;54.498;18.544;2024-01-11T09:17:16;3.82;80.48
71206;SHT31;58935;54.498;18.544;2024-01-11T09:19:41;3.81;80.40
71206;SHT31;58935;54.498;18.544;2024-01-11T09:22:07;3.80;80.33
71206;SHT31;58935;54.498;18.544;2024-01-11T09:24:35;3.81;80.28
71206;SHT31;58935;54.498;18.544;2024-01-11T09:27:01;3.82;80.29
71206;SHT31;58935;54.498;18.544;2024-01-11T09:29:29;3.83;80.38
71206;SHT31;58935;54.498;18.544;2024-01-11T09:31:55;3.83;80.33
71206;SHT31;58935;54.498;18.544;2024-01-11T09:34:24;3.86;80.41
71206;SHT31;58935;54.498;18.544;2024-01-11T09:36:50;3.91;80.35
71206;SHT31;58935;54.498;18.544;2024-01-11T09:39:15;3.95;80.18
71206;SHT31;58935;54.498;18.544;2024-01-11T09:41:42;4.00;80.17
71206;SHT31;58935;54.498;18.544;2024-01-11T09:44:22;4.05;80.10
71206;SHT31;58935;54.498;18.544;2024-01-11T09:46:50;4.10;79.92
71206;SHT31;58935;54.498;18.544;2024-01-11T09:49:17;4.12;79.70
71206;SHT31;58935;54.498;18.544;2024-01-11T09:51:47;4.12;79.64
71206;SHT31;58935;54.498;18.544;2024-01-11T09:54:14;4.12;79.63
71206;SHT31;58935;54.498;18.544;2024-01-11T09:56:41;4.14;79.67
71206;SHT31;58935;54.498;18.544;2024-01-11T09:59:08;4.14;79.60
71206;SHT31;58935;54.498;18.544;2024-01-11T10:01:35;4.13;79.62
71206;SHT31;58935;54.498;18.544;2024-01-11T10:04:01;4.11;79.68
71206;SHT31;58935;54.498;18.544;2024-01-11T10:06:28;4.12;79.79
71206;SHT31;58935;54.498;18.544;2024-01-11T10:09:01;4.13;79.82
71206;SHT31;58935;54.498;18.544;2024-01-11T10:11:27;4.15;79.83
71206;SHT31;58935;54.498;18.544;2024-01-11T10:13:56;4.17;79.76
71206;SHT31;58935;54.498;18.544;2024-01-11T10:16:23;4.20;79.81
71206;SHT31;58935;54.498;18.544;2024-01-11T10:18:53;4.21;79.76
71206;SHT31;58935;54.498;18.544;2024-01-11T10:21:20;4.18;79.70
71206;SHT31;58935;54.498;18.544;2024-01-11T10:23:51;4.15;79.85
71206;SHT31;58935;54.498;18.544;2024-01-11T10:26:17;4.13;79.83
71206;SHT31;58935;54.498;18.544;2024-01-11T10:28:44;4.12;79.91
71206;SHT31;58935;54.498;18.544;2024-01-11T10:31:13;4.11;79.99
71206;SHT31;58935;54.498;18.544;2024-01-11T10:33:40;4.12;80.01
71206;SHT31;58935;54.498;18.544;2024-01-11T10:36:06;4.12;79.92
71206;SHT31;58935;54.498;18.544;2024-01-11T10:38:35;4.12;79.99
71206;SHT31;58935;54.498;18.544;2024-01-11T10:41:05;4.16;80.02
71206;SHT31;58935;54.498;18.544;2024-01-11T10:43:32;4.18;79.98
71206;SHT31;58935;54.498;18.544;2024-01-11T10:46:03;4.18;79.97
71206;SHT31;58935;54.498;18.544;2024-01-11T10:48:33;4.17;80.05
71206;SHT31;58935;54.498;18.544;2024-01-11T10:51:05;4.16;80.12
71206;SHT31;58935;54.498;18.544;2024-01-11T10:56:13;4.16;80.36
71206;SHT31;58935;54.498;18.544;2024-01-11T10:58:42;4.16;80.58
71206;SHT31;58935;54.498;18.544;2024-01-11T11:01:10;4.15;80.83
71206;SHT31;58935;54.498;18.544;2024-01-11T11:03:37;4.10;81.10
71206;SHT31;58935;54.498;18.544;2024-01-11T11:06:05;4.05;81.43
71206;SHT31;58935;54.498;18.544;2024-01-11T11:08:32;4.01;81.69
71206;SHT31;58935;54.498;18.544;2024-01-11T11:11:01;3.97;81.96
71206;SHT31;58935;54.498;18.544;2024-01-11T11:13:31;3.96;82.16
71206;SHT31;58935;54.498;18.544;2024-01-11T11:15:59;3.95;82.41
71206;SHT31;58935;54.498;18.544;2024-01-11T11:18:27;3.91;82.54
71206;SHT31;58935;54.498;18.544;2024-01-11T11:21:00;3.91;82.73
71206;SHT31;58935;54.498;18.544;2024-01-11T11:23:26;3.90;82.87
71206;SHT31;58935;54.498;18.544;2024-01-11T11:25:53;3.89;83.08
71206;SHT31;58935;54.498;18.544;2024-01-11T11:28:21;3.86;83.50
71206;SHT31;58935;54.498;18.544;2024-01-11T11:30:48;3.81;83.74
71206;SHT31;58935;54.498;18.544;2024-01-11T11:33:18;3.78;83.86
71206;SHT31;58935;54.498;18.544;2024-01-11T11:35:52;3.76;84.02
71206;SHT31;58935;54.498;18.544;2024-01-11T11:38:20;3.75;84.13
71206;SHT31;58935;54.498;18.544;2024-01-11T11:40:53;3.75;84.27
71206;SHT31;58935;54.498;18.544;2024-01-11T11:43:26;3.76;84.34
71206;SHT31;58935;54.498;18.544;2024-01-11T11:45:55;3.78;84.39
71206;SHT31;58935;54.498;18.544;2024-01-11T11:51:15;3.84;84.32
71206;SHT31;58935;54.498;18.544;2024-01-11T11:53:43;3.86;84.26
71206;SHT31;58935;54.498;18.544;2024-01-11T11:56:10;3.85;84.32
71206;SHT31;58935;54.498;18.544;2024-01-11T11:58:37;3.88;84.36
71206;SHT31;58935;54.498;18.544;2024-01-11T12:01:04;3.91;84.33
71206;SHT31;58935;54.498;18.544;2024-01-11T12:03:31;3.93;84.24
71206;SHT31;58935;54.498;18.544;2024-01-11T12:05:59;3.93;84.20
71206;SHT31;58935;54.498;18.544;2024-01-11T12:08:25;3.94;84.21
71206;SHT31;58935;54.498;18.544;2024-01-11T12:10:52;3.92;84.20
71206;SHT31;58935;54.498;18.544;2024-01-11T12:13:18;3.93;84.23
71206;SHT31;58935;54.498;18.544;2024-01-11T12:15:45;3.93;84.26
71206;SHT31;58935;54.498;18.544;2024-01-11T12:18:13;3.93;84.27
71206;SHT31;58935;54.498;18.544;2024-01-11T12:20:40;3.91;84.30
71206;SHT31;58935;54.498;18.544;2024-01-11T12:23:05;3.88;84.43
71206;SHT31;58935;54.498;18.544;2024-01-11T12:25:31;3.90;84.50
71206;SHT31;58935;54.498;18.544;2024-01-11T12:27:59;3.94;84.50
71206;SHT31;58935;54.498;18.544;2024-01-11T12:30:26;4.03;84.44
71206;SHT31;58935;54.498;18.544;2024-01-11T12:32:52;4.13;84.20
71206;SHT31;58935;54.498;18.544;2024-01-11T12:35:20;4.14;84.03
71206;SHT31;58935;54.498;18.544;2024-01-11T12:40:20;4.07;84.01
71206;SHT31;58935;54.498;18.544;2024-01-11T12:42:46;4.05;84.14
71206;SHT31;58935;54.498;18.544;2024-01-11T12:45:15;4.04;84.29
71206;SHT31;58935;54.498;18.544;2024-01-11T12:47:42;4.04;84.31
71206;SHT31;58935;54.498;18.544;2024-01-11T12:50:09;4.05;84.30
71206;SHT31;58935;54.498;18.544;2024-01-11T12:52:37;4.07;84.24
71206;SHT31;58935;54.498;18.544;2024-01-11T12:55:04;4.09;84.20
71206;SHT31;58935;54.498;18.544;2024-01-11T12:57:33;4.09;84.20
71206;SHT31;58935;54.498;18.544;2024-01-11T13:02:33;4.09;84.20
71206;SHT31;58935;54.498;18.544;2024-01-11T13:04:59;4.09;84.21
71206;SHT31;58935;54.498;18.544;2024-01-11T13:07:26;4.07;84.21
71206;SHT31;58935;54.498;18.544;2024-01-11T13:09:52;4.07;84.36
71206;SHT31;58935;54.498;18.544;2024-01-11T13:12:17;4.07;84.40
71206;SHT31;58935;54.498;18.544;2024-01-11T13:14:45;4.06;84.53
71206;SHT31;58935;54.498;18.544;2024-01-11T13:17:12;4.04;84.58
71206;SHT31;58935;54.498;18.544;2024-01-11T13:19:37;4.04;84.60
71206;SHT31;58935;54.498;18.544;2024-01-11T13:22:04;4.04;84.67
71206;SHT31;58935;54.498;18.544;2024-01-11T13:24:30;4.04;84.70
71206;SHT31;58935;54.498;18.544;2024-01-11T13:26:56;4.05;84.70
71206;SHT31;58935;54.498;18.544;2024-01-11T13:29:24;4.05;84.70
71206;SHT31;58935;54.498;18.544;2024-01-11T13:31:49;4.05;84.72
71206;SHT31;58935;54.498;18.544;2024-01-11T13:34:17;4.05;84.79
71206;SHT31;58935;54.498;18.544;2024-01-11T13:36:44;4.04;84.85
71206;SHT31;58935;54.498;18.544;2024-01-11T13:39:11;4.02;85.07
71206;SHT31;58935;54.498;18.544;2024-01-11T13:41:37;4.00;85.02
71206;SHT31;58935;54.498;18.544;2024-01-11T13:44:02;3.99;84.90
71206;SHT31;58935;54.498;18.544;2024-01-11T13:46:30;3.98;84.90
71206;SHT31;58935;54.498;18.544;2024-01-11T13:48:57;3.97;84.91
71206;SHT31;58935;54.498;18.544;2024-01-11T13:51:23;3.96;84.92
71206;SHT31;58935;54.498;18.544;2024-01-11T13:53:48;3.95;84.90
71206;SHT31;58935;54.498;18.544;2024-01-11T13:56:16;3.94;84.82
71206;SHT31;58935;54.498;18.544;2024-01-11T13:58:42;3.92;84.80
71206;SHT31;58935;54.498;18.544;2024-01-11T14:01:09;3.91;84.75
71206;SHT31;58935;54.498;18.544;2024-01-11T14:03:36;3.90;84.57
71206;SHT31;58935;54.498;18.544;2024-01-11T14:06:01;3.90;84.44
71206;SHT31;58935;54.498;18.544;2024-01-11T14:08:29;3.89;84.29
71206;SHT31;58935;54.498;18.544;2024-01-11T14:10:57;3.87;84.08
71206;SHT31;58935;54.498;18.544;2024-01-11T14:13:22;3.84;83.74
71206;SHT31;58935;54.498;18.544;2024-01-11T14:15:48;3.84;83.60
71206;SHT31;58935;54.498;18.544;2024-01-11T14:18:16;3.82;83.43
71206;SHT31;58935;54.498;18.544;2024-01-11T14:20:46;3.80;83.14
71206;SHT31;58935;54.498;18.544;2024-01-11T14:23:11;3.79;82.97
71206;SHT31;58935;54.498;18.544;2024-01-11T14:25:36;3.76;82.54
71206;SHT31;58935;54.498;18.544;2024-01-11T14:28:02;3.74;82.20
71206;SHT31;58935;54.498;18.544;2024-01-11T14:30:29;3.71;82.02
71206;SHT31;58935;54.498;18.544;2024-01-11T14:32:57;3.69;82.00
71206;SHT31;58935;54.498;18.544;2024-01-11T14:35:22;3.65;81.87
71206;SHT31;58935;54.498;18.544;2024-01-11T14:37:48;3.60;81.51
71206;SHT31;58935;54.498;18.544;2024-01-11T14:40:14;3.57;80.91
71206;SHT31;58935;54.498;18.544;2024-01-11T14:42:40;3.54;80.32
71206;SHT31;58935;54.498;18.544;2024-01-11T14:45:06;3.50;79.47
71206;SHT31;58935;54.498;18.544;2024-01-11T14:47:33;3.49;78.97
71206;SHT31;58935;54.498;18.544;2024-01-11T14:49:59;3.45;78.64
71206;SHT31;58935;54.498;18.544;2024-01-11T14:52:25;3.41;78.47
71206;SHT31;58935;54.498;18.544;2024-01-11T14:54:51;3.36;78.49
71206;SHT31;58935;54.498;18.544;2024-01-11T14:57:17;3.30;78.46
71206;SHT31;58935;54.498;18.544;2024-01-11T14:59:43;3.29;78.34
71206;SHT31;58935;54.498;18.544;2024-01-11T15:02:13;3.26;78.22
71206;SHT31;58935;54.498;18.544;2024-01-11T15:04:41;3.24;78.17
71206;SHT31;58935;54.498;18.544;2024-01-11T15:07:08;3.25;78.18
71206;SHT31;58935;54.498;18.544;2024-01-11T15:09:34;3.25;78.40
71206;SHT31;58935;54.498;18.544;2024-01-11T15:12:01;3.25;78.50
71206;SHT31;58935;54.498;18.544;2024-01-11T15:14:29;3.24;78.88
71206;SHT31;58935;54.498;18.544;2024-01-11T15:16:54;3.24;79.55
71206;SHT31;58935;54.498;18.544;2024-01-11T15:19:23;3.20;80.13
71206;SHT31;58935;54.498;18.544;2024-01-11T15:21:49;3.15;80.48
71206;SHT31;58935;54.498;18.544;2024-01-11T15:24:14;3.11;80.75
71206;SHT31;58935;54.498;18.544;2024-01-11T15:26:40;3.07;81.01
71206;SHT31;58935;54.498;18.544;2024-01-11T15:29:07;3.04;81.03
71206;SHT31;58935;54.498;18.544;2024-01-11T15:31:37;3.01;80.74
71206;SHT31;58935;54.498;18.544;2024-01-11T15:34:05;3.02;80.03
71206;SHT31;58935;54.498;18.544;2024-01-11T15:36:30;3.02;78.70